Chibougamau Airport (YMT/CYMT)

Map

Destinations

Information

Location
Chibougamau, Quebec, Canada
Local Time
19:14 / 7:14 pm
GMT Time
00:14 / 12:14 am
Gates
Unassigned
No FAA reported delays
METAR CYMT 230000Z AUTO 28005KT 9SM CLR M15/M23 A3023 RMK SLP280
TAF TAF CYMT 221738Z 2218/2224 31012KT P6SM SKC TEMPO 2218/2224 5SM IC BECMG 2222/2224 29010KT RMK FCST BASED ON AUTO OBS. NXT FCST WILL BE ISSUED AT 231145Z
  • No charts available